sensor_id;sensor_type;location;lat;lon;timestamp;P1;durP1;ratioP1;P2;durP2;ratioP2
58015;SDS011;43809;52.110;20.964;2022-12-29T00:00:10;9.05;;;5.45;;
58015;SDS011;43809;52.110;20.964;2022-12-29T00:02:11;10.13;;;5.78;;
58015;SDS011;43809;52.110;20.964;2022-12-29T00:04:12;10.35;;;5.40;;
58015;SDS011;43809;52.110;20.964;2022-12-29T00:06:13;8.35;;;5.30;;
58015;SDS011;43809;52.110;20.964;2022-12-29T00:08:19;10.05;;;5.30;;
58015;SDS011;43809;52.110;20.964;2022-12-29T00:10:19;11.52;;;5.07;;
58015;SDS011;43809;52.110;20.964;2022-12-29T00:12:19;9.70;;;5.23;;
58015;SDS011;43809;52.110;20.964;2022-12-29T00:14:19;10.77;;;5.88;;
58015;SDS011;43809;52.110;20.964;2022-12-29T00:16:42;8.88;;;5.45;;
58015;SDS011;43809;52.110;20.964;2022-12-29T00:18:43;8.48;;;5.22;;
58015;SDS011;43809;52.110;20.964;2022-12-29T00:20:43;9.43;;;4.90;;
58015;SDS011;43809;52.110;20.964;2022-12-29T00:23:07;9.93;;;5.15;;
58015;SDS011;43809;52.110;20.964;2022-12-29T00:25:26;11.25;;;4.90;;
58015;SDS011;43809;52.110;20.964;2022-12-29T00:27:45;9.00;;;5.00;;
58015;SDS011;43809;52.110;20.964;2022-12-29T00:30:08;8.10;;;4.68;;
58015;SDS011;43809;52.110;20.964;2022-12-29T00:32:27;8.00;;;5.20;;
58015;SDS011;43809;52.110;20.964;2022-12-29T00:34:46;9.68;;;5.30;;
58015;SDS011;43809;52.110;20.964;2022-12-29T00:37:05;8.18;;;5.00;;
58015;SDS011;43809;52.110;20.964;2022-12-29T00:39:06;8.80;;;4.87;;
58015;SDS011;43809;52.110;20.964;2022-12-29T00:41:26;10.13;;;5.03;;
58015;SDS011;43809;52.110;20.964;2022-12-29T00:43:44;7.63;;;4.95;;
58015;SDS011;43809;52.110;20.964;2022-12-29T00:46:03;9.70;;;5.47;;
58015;SDS011;43809;52.110;20.964;2022-12-29T00:48:04;10.23;;;5.53;;
58015;SDS011;43809;52.110;20.964;2022-12-29T00:50:04;9.02;;;4.97;;
58015;SDS011;43809;52.110;20.964;2022-12-29T00:52:05;11.02;;;5.03;;
58015;SDS011;43809;52.110;20.964;2022-12-29T00:54:06;9.82;;;5.18;;
58015;SDS011;43809;52.110;20.964;2022-12-29T00:56:06;8.80;;;5.07;;
58015;SDS011;43809;52.110;20.964;2022-12-29T00:58:06;10.50;;;5.50;;
58015;SDS011;43809;52.110;20.964;2022-12-29T01:00:07;10.27;;;4.70;;
58015;SDS011;43809;52.110;20.964;2022-12-29T01:02:07;10.50;;;5.43;;
58015;SDS011;43809;52.110;20.964;2022-12-29T01:04:07;9.63;;;5.00;;
58015;SDS011;43809;52.110;20.964;2022-12-29T01:06:08;9.40;;;4.75;;
58015;SDS011;43809;52.110;20.964;2022-12-29T01:08:09;8.73;;;4.80;;
58015;SDS011;43809;52.110;20.964;2022-12-29T01:10:09;8.68;;;5.05;;
58015;SDS011;43809;52.110;20.964;2022-12-29T01:12:09;11.68;;;4.63;;
58015;SDS011;43809;52.110;20.964;2022-12-29T01:14:10;9.45;;;4.88;;
58015;SDS011;43809;52.110;20.964;2022-12-29T01:16:10;9.55;;;4.97;;
58015;SDS011;43809;52.110;20.964;2022-12-29T01:18:10;8.85;;;4.63;;
58015;SDS011;43809;52.110;20.964;2022-12-29T01:20:10;8.87;;;4.47;;
58015;SDS011;43809;52.110;20.964;2022-12-29T01:22:10;8.07;;;4.53;;
58015;SDS011;43809;52.110;20.964;2022-12-29T01:24:10;8.97;;;4.90;;
58015;SDS011;43809;52.110;20.964;2022-12-29T01:26:12;7.95;;;4.45;;
58015;SDS011;43809;52.110;20.964;2022-12-29T01:28:12;7.32;;;4.35;;
58015;SDS011;43809;52.110;20.964;2022-12-29T01:30:12;7.25;;;4.30;;
58015;SDS011;43809;52.110;20.964;2022-12-29T01:32:12;10.13;;;4.53;;
58015;SDS011;43809;52.110;20.964;2022-12-29T01:34:13;8.43;;;4.30;;
58015;SDS011;43809;52.110;20.964;2022-12-29T01:36:14;8.88;;;3.95;;
58015;SDS011;43809;52.110;20.964;2022-12-29T01:38:17;7.65;;;4.10;;
58015;SDS011;43809;52.110;20.964;2022-12-29T01:40:18;6.75;;;4.07;;
58015;SDS011;43809;52.110;20.964;2022-12-29T01:42:18;8.65;;;4.50;;
58015;SDS011;43809;52.110;20.964;2022-12-29T01:46:39;6.90;;;3.92;;
58015;SDS011;43809;52.110;20.964;2022-12-29T01:48:40;7.00;;;4.03;;
58015;SDS011;43809;52.110;20.964;2022-12-29T01:50:43;7.63;;;4.18;;
58015;SDS011;43809;52.110;20.964;2022-12-29T01:52:45;7.15;;;4.53;;
58015;SDS011;43809;52.110;20.964;2022-12-29T01:54:49;8.55;;;4.30;;
58015;SDS011;43809;52.110;20.964;2022-12-29T01:56:51;7.78;;;3.95;;
58015;SDS011;43809;52.110;20.964;2022-12-29T01:58:55;8.00;;;4.18;;
58015;SDS011;43809;52.110;20.964;2022-12-29T02:00:56;6.57;;;3.70;;
58015;SDS011;43809;52.110;20.964;2022-12-29T02:02:56;9.23;;;4.33;;
58015;SDS011;43809;52.110;20.964;2022-12-29T02:04:57;9.13;;;4.43;;
58015;SDS011;43809;52.110;20.964;2022-12-29T02:07:03;6.53;;;3.95;;
58015;SDS011;43809;52.110;20.964;2022-12-29T02:09:04;7.20;;;4.35;;
58015;SDS011;43809;52.110;20.964;2022-12-29T02:11:15;7.15;;;3.85;;
58015;SDS011;43809;52.110;20.964;2022-12-29T02:13:16;8.30;;;4.22;;
58015;SDS011;43809;52.110;20.964;2022-12-29T02:15:17;7.40;;;3.83;;
58015;SDS011;43809;52.110;20.964;2022-12-29T02:21:48;6.25;;;3.67;;
58015;SDS011;43809;52.110;20.964;2022-12-29T02:26:43;5.28;;;3.47;;
58015;SDS011;43809;52.110;20.964;2022-12-29T02:33:11;8.23;;;4.07;;
58015;SDS011;43809;52.110;20.964;2022-12-29T02:37:22;7.30;;;3.73;;
58015;SDS011;43809;52.110;20.964;2022-12-29T02:46:15;7.13;;;3.80;;
58015;SDS011;43809;52.110;20.964;2022-12-29T02:48:24;7.97;;;3.95;;
58015;SDS011;43809;52.110;20.964;2022-12-29T02:50:27;7.57;;;3.75;;
58015;SDS011;43809;52.110;20.964;2022-12-29T02:52:35;6.20;;;3.47;;
58015;SDS011;43809;52.110;20.964;2022-12-29T02:54:36;5.82;;;3.30;;
58015;SDS011;43809;52.110;20.964;2022-12-29T02:56:42;8.07;;;3.83;;
58015;SDS011;43809;52.110;20.964;2022-12-29T02:58:42;8.27;;;3.40;;
58015;SDS011;43809;52.110;20.964;2022-12-29T03:03:08;5.15;;;3.17;;
58015;SDS011;43809;52.110;20.964;2022-12-29T03:05:17;8.30;;;3.72;;
58015;SDS011;43809;52.110;20.964;2022-12-29T03:07:23;6.82;;;3.38;;
58015;SDS011;43809;52.110;20.964;2022-12-29T03:11:54;5.82;;;3.08;;
58015;SDS011;43809;52.110;20.964;2022-12-29T03:16:49;5.65;;;3.10;;
58015;SDS011;43809;52.110;20.964;2022-12-29T03:20:58;7.47;;;3.50;;
58015;SDS011;43809;52.110;20.964;2022-12-29T03:23:00;8.27;;;4.18;;
58015;SDS011;43809;52.110;20.964;2022-12-29T03:27:18;7.05;;;3.67;;
58015;SDS011;43809;52.110;20.964;2022-12-29T03:31:19;6.67;;;3.53;;
58015;SDS011;43809;52.110;20.964;2022-12-29T03:33:21;6.60;;;3.70;;
58015;SDS011;43809;52.110;20.964;2022-12-29T03:35:23;7.53;;;3.70;;
58015;SDS011;43809;52.110;20.964;2022-12-29T03:37:26;6.72;;;3.58;;
58015;SDS011;43809;52.110;20.964;2022-12-29T03:39:28;6.85;;;3.50;;
58015;SDS011;43809;52.110;20.964;2022-12-29T03:41:30;8.23;;;3.72;;
58015;SDS011;43809;52.110;20.964;2022-12-29T03:43:31;7.50;;;3.60;;
58015;SDS011;43809;52.110;20.964;2022-12-29T03:45:31;7.07;;;3.63;;
58015;SDS011;43809;52.110;20.964;2022-12-29T03:47:31;8.23;;;4.10;;
58015;SDS011;43809;52.110;20.964;2022-12-29T03:49:32;7.18;;;4.05;;
58015;SDS011;43809;52.110;20.964;2022-12-29T03:51:32;8.18;;;4.10;;
58015;SDS011;43809;52.110;20.964;2022-12-29T03:53:32;7.37;;;4.17;;
58015;SDS011;43809;52.110;20.964;2022-12-29T03:55:32;9.60;;;4.63;;
58015;SDS011;43809;52.110;20.964;2022-12-29T03:57:33;8.02;;;4.07;;
58015;SDS011;43809;52.110;20.964;2022-12-29T03:59:33;9.90;;;4.37;;
58015;SDS011;43809;52.110;20.964;2022-12-29T04:01:33;9.43;;;4.53;;
58015;SDS011;43809;52.110;20.964;2022-12-29T04:03:33;8.73;;;4.68;;
58015;SDS011;43809;52.110;20.964;2022-12-29T04:05:33;7.90;;;4.30;;
58015;SDS011;43809;52.110;20.964;2022-12-29T04:07:34;9.00;;;4.93;;
58015;SDS011;43809;52.110;20.964;2022-12-29T04:09:34;9.20;;;4.65;;
58015;SDS011;43809;52.110;20.964;2022-12-29T04:11:34;8.82;;;5.10;;
58015;SDS011;43809;52.110;20.964;2022-12-29T04:13:34;9.32;;;5.28;;
58015;SDS011;43809;52.110;20.964;2022-12-29T04:15:35;9.45;;;4.63;;
58015;SDS011;43809;52.110;20.964;2022-12-29T04:17:36;11.20;;;5.07;;
58015;SDS011;43809;52.110;20.964;2022-12-29T04:19:36;10.65;;;4.72;;
58015;SDS011;43809;52.110;20.964;2022-12-29T04:21:36;9.10;;;4.77;;
58015;SDS011;43809;52.110;20.964;2022-12-29T04:23:37;9.47;;;4.90;;
58015;SDS011;43809;52.110;20.964;2022-12-29T04:25:40;8.98;;;4.85;;
58015;SDS011;43809;52.110;20.964;2022-12-29T04:27:41;10.00;;;5.05;;
58015;SDS011;43809;52.110;20.964;2022-12-29T04:29:41;9.30;;;5.40;;
58015;SDS011;43809;52.110;20.964;2022-12-29T04:31:41;10.13;;;5.13;;
58015;SDS011;43809;52.110;20.964;2022-12-29T04:33:41;9.95;;;4.97;;
58015;SDS011;43809;52.110;20.964;2022-12-29T04:35:42;9.63;;;5.50;;
58015;SDS011;43809;52.110;20.964;2022-12-29T04:37:42;9.57;;;5.30;;
58015;SDS011;43809;52.110;20.964;2022-12-29T04:39:42;11.25;;;5.50;;
58015;SDS011;43809;52.110;20.964;2022-12-29T04:41:42;11.82;;;5.43;;
58015;SDS011;43809;52.110;20.964;2022-12-29T04:43:43;10.27;;;5.93;;
58015;SDS011;43809;52.110;20.964;2022-12-29T04:45:43;13.25;;;5.78;;
58015;SDS011;43809;52.110;20.964;2022-12-29T04:47:44;11.07;;;5.95;;
58015;SDS011;43809;52.110;20.964;2022-12-29T04:49:44;12.73;;;5.90;;
58015;SDS011;43809;52.110;20.964;2022-12-29T04:51:44;12.52;;;6.00;;
58015;SDS011;43809;52.110;20.964;2022-12-29T04:53:44;13.00;;;5.97;;
58015;SDS011;43809;52.110;20.964;2022-12-29T04:55:47;10.82;;;5.60;;
58015;SDS011;43809;52.110;20.964;2022-12-29T04:57:48;11.73;;;5.82;;
58015;SDS011;43809;52.110;20.964;2022-12-29T04:59:48;12.73;;;6.10;;
58015;SDS011;43809;52.110;20.964;2022-12-29T05:01:48;12.70;;;6.15;;
58015;SDS011;43809;52.110;20.964;2022-12-29T05:03:49;10.70;;;5.70;;
58015;SDS011;43809;52.110;20.964;2022-12-29T05:05:52;11.05;;;5.60;;
58015;SDS011;43809;52.110;20.964;2022-12-29T05:07:52;12.45;;;6.07;;
58015;SDS011;43809;52.110;20.964;2022-12-29T05:09:53;12.40;;;6.07;;
58015;SDS011;43809;52.110;20.964;2022-12-29T05:11:53;10.90;;;5.75;;
58015;SDS011;43809;52.110;20.964;2022-12-29T05:13:53;11.33;;;5.87;;
58015;SDS011;43809;52.110;20.964;2022-12-29T05:15:53;11.47;;;5.70;;
58015;SDS011;43809;52.110;20.964;2022-12-29T05:20:17;13.10;;;5.72;;
58015;SDS011;43809;52.110;20.964;2022-12-29T05:22:18;12.70;;;6.65;;
58015;SDS011;43809;52.110;20.964;2022-12-29T05:24:18;10.60;;;5.57;;
58015;SDS011;43809;52.110;20.964;2022-12-29T05:26:18;11.05;;;5.28;;
58015;SDS011;43809;52.110;20.964;2022-12-29T05:28:18;14.00;;;5.55;;
58015;SDS011;43809;52.110;20.964;2022-12-29T05:30:19;11.57;;;5.63;;
58015;SDS011;43809;52.110;20.964;2022-12-29T05:32:19;11.13;;;5.25;;
58015;SDS011;43809;52.110;20.964;2022-12-29T05:34:19;11.07;;;5.60;;
58015;SDS011;43809;52.110;20.964;2022-12-29T05:36:19;10.65;;;5.35;;
58015;SDS011;43809;52.110;20.964;2022-12-29T05:38:20;11.63;;;5.60;;
58015;SDS011;43809;52.110;20.964;2022-12-29T05:40:20;12.70;;;5.53;;
58015;SDS011;43809;52.110;20.964;2022-12-29T05:42:20;9.50;;;5.43;;
58015;SDS011;43809;52.110;20.964;2022-12-29T05:44:20;10.27;;;5.40;;
58015;SDS011;43809;52.110;20.964;2022-12-29T05:46:20;11.77;;;5.72;;
58015;SDS011;43809;52.110;20.964;2022-12-29T05:48:20;11.27;;;5.40;;
58015;SDS011;43809;52.110;20.964;2022-12-29T05:50:21;10.13;;;5.50;;
58015;SDS011;43809;52.110;20.964;2022-12-29T05:54:45;10.30;;;5.43;;
58015;SDS011;43809;52.110;20.964;2022-12-29T05:56:45;12.48;;;5.55;;
58015;SDS011;43809;52.110;20.964;2022-12-29T05:58:45;10.40;;;5.05;;
58015;SDS011;43809;52.110;20.964;2022-12-29T06:00:46;8.65;;;5.45;;
58015;SDS011;43809;52.110;20.964;2022-12-29T06:02:46;10.20;;;5.55;;
58015;SDS011;43809;52.110;20.964;2022-12-29T06:04:46;10.60;;;5.20;;
58015;SDS011;43809;52.110;20.964;2022-12-29T06:06:46;15.18;;;6.10;;
58015;SDS011;43809;52.110;20.964;2022-12-29T06:08:46;10.80;;;5.15;;
58015;SDS011;43809;52.110;20.964;2022-12-29T06:10:47;11.15;;;5.30;;
58015;SDS011;43809;52.110;20.964;2022-12-29T06:12:47;9.73;;;5.10;;
58015;SDS011;43809;52.110;20.964;2022-12-29T06:14:47;10.85;;;4.70;;
58015;SDS011;43809;52.110;20.964;2022-12-29T06:16:47;11.93;;;5.38;;
58015;SDS011;43809;52.110;20.964;2022-12-29T06:18:48;8.77;;;4.70;;
58015;SDS011;43809;52.110;20.964;2022-12-29T06:20:48;9.65;;;5.10;;
58015;SDS011;43809;52.110;20.964;2022-12-29T06:22:48;8.02;;;4.70;;
58015;SDS011;43809;52.110;20.964;2022-12-29T06:24:49;9.32;;;4.88;;
58015;SDS011;43809;52.110;20.964;2022-12-29T06:26:49;9.07;;;4.70;;
58015;SDS011;43809;52.110;20.964;2022-12-29T06:28:52;9.35;;;5.30;;
58015;SDS011;43809;52.110;20.964;2022-12-29T06:30:52;10.00;;;4.55;;
58015;SDS011;43809;52.110;20.964;2022-12-29T06:32:53;10.38;;;5.00;;
58015;SDS011;43809;52.110;20.964;2022-12-29T06:34:54;9.27;;;4.72;;
58015;SDS011;43809;52.110;20.964;2022-12-29T06:36:54;9.25;;;4.85;;
58015;SDS011;43809;52.110;20.964;2022-12-29T06:38:54;9.48;;;4.60;;
58015;SDS011;43809;52.110;20.964;2022-12-29T06:40:58;9.40;;;4.43;;
58015;SDS011;43809;52.110;20.964;2022-12-29T06:42:58;10.45;;;5.43;;
58015;SDS011;43809;52.110;20.964;2022-12-29T06:44:58;9.23;;;5.10;;
58015;SDS011;43809;52.110;20.964;2022-12-29T06:47:00;8.60;;;4.38;;
58015;SDS011;43809;52.110;20.964;2022-12-29T06:49:00;8.85;;;4.80;;
58015;SDS011;43809;52.110;20.964;2022-12-29T06:51:04;10.02;;;4.72;;
58015;SDS011;43809;52.110;20.964;2022-12-29T06:53:04;8.30;;;4.95;;
58015;SDS011;43809;52.110;20.964;2022-12-29T06:55:04;10.68;;;5.13;;
58015;SDS011;43809;52.110;20.964;2022-12-29T06:57:04;10.18;;;5.25;;
58015;SDS011;43809;52.110;20.964;2022-12-29T06:59:05;8.02;;;4.45;;
58015;SDS011;43809;52.110;20.964;2022-12-29T07:01:05;9.32;;;4.90;;
58015;SDS011;43809;52.110;20.964;2022-12-29T07:03:05;9.90;;;4.63;;
58015;SDS011;43809;52.110;20.964;2022-12-29T07:05:06;9.55;;;5.03;;
58015;SDS011;43809;52.110;20.964;2022-12-29T07:07:07;9.50;;;5.00;;
58015;SDS011;43809;52.110;20.964;2022-12-29T07:09:07;9.38;;;4.82;;
58015;SDS011;43809;52.110;20.964;2022-12-29T07:11:08;9.07;;;4.60;;
58015;SDS011;43809;52.110;20.964;2022-12-29T07:13:08;9.30;;;4.82;;
58015;SDS011;43809;52.110;20.964;2022-12-29T07:15:09;8.10;;;4.28;;
58015;SDS011;43809;52.110;20.964;2022-12-29T07:17:09;9.95;;;4.97;;
58015;SDS011;43809;52.110;20.964;2022-12-29T07:19:09;10.80;;;5.22;;
58015;SDS011;43809;52.110;20.964;2022-12-29T07:21:10;8.27;;;4.30;;
58015;SDS011;43809;52.110;20.964;2022-12-29T07:23:10;9.02;;;4.75;;
58015;SDS011;43809;52.110;20.964;2022-12-29T07:25:10;8.18;;;4.88;;
58015;SDS011;43809;52.110;20.964;2022-12-29T07:27:10;9.32;;;4.70;;
58015;SDS011;43809;52.110;20.964;2022-12-29T07:29:10;8.73;;;4.97;;
58015;SDS011;43809;52.110;20.964;2022-12-29T07:31:14;7.50;;;4.28;;
58015;SDS011;43809;52.110;20.964;2022-12-29T07:33:16;6.47;;;4.47;;
58015;SDS011;43809;52.110;20.964;2022-12-29T07:35:16;9.70;;;4.65;;
58015;SDS011;43809;52.110;20.964;2022-12-29T07:37:16;8.48;;;4.90;;
58015;SDS011;43809;52.110;20.964;2022-12-29T07:39:16;10.50;;;4.50;;
58015;SDS011;43809;52.110;20.964;2022-12-29T07:41:17;7.38;;;4.57;;
58015;SDS011;43809;52.110;20.964;2022-12-29T07:43:18;8.07;;;4.63;;
58015;SDS011;43809;52.110;20.964;2022-12-29T07:45:18;7.88;;;4.65;;
58015;SDS011;43809;52.110;20.964;2022-12-29T07:47:18;9.23;;;4.53;;
58015;SDS011;43809;52.110;20.964;2022-12-29T07:49:18;9.75;;;5.03;;
58015;SDS011;43809;52.110;20.964;2022-12-29T07:51:18;8.10;;;4.70;;
58015;SDS011;43809;52.110;20.964;2022-12-29T07:53:19;8.65;;;4.75;;
58015;SDS011;43809;52.110;20.964;2022-12-29T07:55:19;7.68;;;4.68;;
58015;SDS011;43809;52.110;20.964;2022-12-29T07:57:19;5.68;;;3.85;;
58015;SDS011;43809;52.110;20.964;2022-12-29T07:59:19;7.72;;;4.18;;
58015;SDS011;43809;52.110;20.964;2022-12-29T08:01:20;8.73;;;4.93;;
58015;SDS011;43809;52.110;20.964;2022-12-29T08:03:21;8.35;;;4.50;;
58015;SDS011;43809;52.110;20.964;2022-12-29T08:05:21;7.50;;;4.35;;
58015;SDS011;43809;52.110;20.964;2022-12-29T08:07:21;7.67;;;4.50;;
58015;SDS011;43809;52.110;20.964;2022-12-29T08:09:21;11.10;;;4.60;;
58015;SDS011;43809;52.110;20.964;2022-12-29T08:11:22;7.43;;;4.30;;
58015;SDS011;43809;52.110;20.964;2022-12-29T08:13:22;8.20;;;4.45;;
58015;SDS011;43809;52.110;20.964;2022-12-29T08:15:22;8.90;;;4.50;;
58015;SDS011;43809;52.110;20.964;2022-12-29T08:17:23;8.02;;;3.88;;
58015;SDS011;43809;52.110;20.964;2022-12-29T08:19:23;10.23;;;4.75;;
58015;SDS011;43809;52.110;20.964;2022-12-29T08:21:23;7.10;;;4.17;;
58015;SDS011;43809;52.110;20.964;2022-12-29T08:23:24;9.02;;;4.45;;
58015;SDS011;43809;52.110;20.964;2022-12-29T08:25:24;8.07;;;4.23;;
58015;SDS011;43809;52.110;20.964;2022-12-29T08:27:24;8.27;;;4.40;;
58015;SDS011;43809;52.110;20.964;2022-12-29T08:29:25;8.13;;;4.43;;
58015;SDS011;43809;52.110;20.964;2022-12-29T08:31:25;7.00;;;4.00;;
58015;SDS011;43809;52.110;20.964;2022-12-29T08:33:25;8.30;;;4.57;;
58015;SDS011;43809;52.110;20.964;2022-12-29T08:35:26;9.20;;;4.43;;
58015;SDS011;43809;52.110;20.964;2022-12-29T08:37:26;8.80;;;4.43;;
58015;SDS011;43809;52.110;20.964;2022-12-29T08:39:26;8.02;;;4.15;;
58015;SDS011;43809;52.110;20.964;2022-12-29T08:41:28;9.38;;;4.30;;
58015;SDS011;43809;52.110;20.964;2022-12-29T08:43:28;9.07;;;4.27;;
58015;SDS011;43809;52.110;20.964;2022-12-29T08:45:28;7.38;;;4.32;;
58015;SDS011;43809;52.110;20.964;2022-12-29T08:47:29;7.70;;;4.50;;
58015;SDS011;43809;52.110;20.964;2022-12-29T08:49:29;8.95;;;4.90;;
58015;SDS011;43809;52.110;20.964;2022-12-29T08:51:29;8.45;;;4.15;;
58015;SDS011;43809;52.110;20.964;2022-12-29T08:53:29;8.05;;;4.15;;
58015;SDS011;43809;52.110;20.964;2022-12-29T08:55:29;7.15;;;4.03;;
58015;SDS011;43809;52.110;20.964;2022-12-29T08:57:29;7.73;;;4.20;;
58015;SDS011;43809;52.110;20.964;2022-12-29T08:59:30;7.77;;;4.30;;
58015;SDS011;43809;52.110;20.964;2022-12-29T09:01:30;8.63;;;4.50;;
58015;SDS011;43809;52.110;20.964;2022-12-29T09:03:30;6.03;;;3.70;;
58015;SDS011;43809;52.110;20.964;2022-12-29T09:05:31;6.33;;;3.43;;
58015;SDS011;43809;52.110;20.964;2022-12-29T09:07:31;6.65;;;4.05;;
58015;SDS011;43809;52.110;20.964;2022-12-29T09:09:31;8.00;;;4.50;;
58015;SDS011;43809;52.110;20.964;2022-12-29T09:11:31;6.40;;;3.80;;
58015;SDS011;43809;52.110;20.964;2022-12-29T09:13:31;6.87;;;4.23;;
58015;SDS011;43809;52.110;20.964;2022-12-29T09:15:32;8.77;;;4.10;;
58015;SDS011;43809;52.110;20.964;2022-12-29T09:17:32;7.03;;;4.13;;
58015;SDS011;43809;52.110;20.964;2022-12-29T09:21:45;8.50;;;4.17;;
58015;SDS011;43809;52.110;20.964;2022-12-29T09:23:45;7.40;;;3.90;;
58015;SDS011;43809;52.110;20.964;2022-12-29T09:25:47;7.78;;;4.35;;
58015;SDS011;43809;52.110;20.964;2022-12-29T09:27:47;7.18;;;4.10;;
58015;SDS011;43809;52.110;20.964;2022-12-29T09:29:47;7.10;;;3.80;;
58015;SDS011;43809;52.110;20.964;2022-12-29T09:31:48;7.97;;;4.28;;
58015;SDS011;43809;52.110;20.964;2022-12-29T09:33:48;8.23;;;4.10;;
58015;SDS011;43809;52.110;20.964;2022-12-29T09:35:57;7.53;;;4.07;;
58015;SDS011;43809;52.110;20.964;2022-12-29T09:37:58;7.15;;;3.83;;
58015;SDS011;43809;52.110;20.964;2022-12-29T09:39:58;8.17;;;4.40;;
58015;SDS011;43809;52.110;20.964;2022-12-29T09:42:06;7.82;;;3.88;;
58015;SDS011;43809;52.110;20.964;2022-12-29T09:46:26;7.68;;;4.35;;
58015;SDS011;43809;52.110;20.964;2022-12-29T09:48:28;11.38;;;4.25;;
58015;SDS011;43809;52.110;20.964;2022-12-29T09:50:31;8.00;;;4.38;;
58015;SDS011;43809;52.110;20.964;2022-12-29T09:52:36;6.90;;;3.60;;
58015;SDS011;43809;52.110;20.964;2022-12-29T09:54:54;7.93;;;4.03;;
58015;SDS011;43809;52.110;20.964;2022-12-29T09:56:55;8.05;;;4.20;;
58015;SDS011;43809;52.110;20.964;2022-12-29T09:59:00;7.65;;;4.30;;
58015;SDS011;43809;52.110;20.964;2022-12-29T10:01:06;6.95;;;3.78;;
58015;SDS011;43809;52.110;20.964;2022-12-29T10:03:12;8.90;;;4.40;;
58015;SDS011;43809;52.110;20.964;2022-12-29T10:05:19;7.20;;;4.32;;
58015;SDS011;43809;52.110;20.964;2022-12-29T10:08:03;8.80;;;4.50;;
58015;SDS011;43809;52.110;20.964;2022-12-29T10:13:58;8.80;;;4.40;;
58015;SDS011;43809;52.110;20.964;2022-12-29T10:22:08;8.30;;;4.65;;
58015;SDS011;43809;52.110;20.964;2022-12-29T10:24:11;7.53;;;4.57;;
58015;SDS011;43809;52.110;20.964;2022-12-29T10:26:16;7.40;;;4.28;;
58015;SDS011;43809;52.110;20.964;2022-12-29T10:28:19;8.55;;;4.88;;
58015;SDS011;43809;52.110;20.964;2022-12-29T10:30:20;6.38;;;4.60;;
58015;SDS011;43809;52.110;20.964;2022-12-29T10:32:23;7.50;;;4.63;;
58015;SDS011;43809;52.110;20.964;2022-12-29T10:34:36;9.40;;;4.38;;
58015;SDS011;43809;52.110;20.964;2022-12-29T10:36:41;7.90;;;4.65;;
58015;SDS011;43809;52.110;20.964;2022-12-29T10:38:48;7.28;;;4.20;;
58015;SDS011;43809;52.110;20.964;2022-12-29T10:45:17;10.48;;;4.60;;
58015;SDS011;43809;52.110;20.964;2022-12-29T10:47:19;7.63;;;4.07;;
58015;SDS011;43809;52.110;20.964;2022-12-29T10:49:21;9.60;;;4.93;;
58015;SDS011;43809;52.110;20.964;2022-12-29T10:53:23;8.63;;;4.85;;
58015;SDS011;43809;52.110;20.964;2022-12-29T10:55:30;9.05;;;4.85;;
58015;SDS011;43809;52.110;20.964;2022-12-29T10:57:36;7.35;;;4.13;;
58015;SDS011;43809;52.110;20.964;2022-12-29T10:59:37;6.43;;;4.25;;
58015;SDS011;43809;52.110;20.964;2022-12-29T11:01:39;8.45;;;4.90;;
58015;SDS011;43809;52.110;20.964;2022-12-29T11:08:14;8.07;;;4.70;;
58015;SDS011;43809;52.110;20.964;2022-12-29T11:10:20;7.32;;;4.38;;
58015;SDS011;43809;52.110;20.964;2022-12-29T11:12:28;8.25;;;4.45;;
58015;SDS011;43809;52.110;20.964;2022-12-29T11:14:30;9.07;;;4.80;;
58015;SDS011;43809;52.110;20.964;2022-12-29T11:16:31;10.73;;;4.90;;
58015;SDS011;43809;52.110;20.964;2022-12-29T11:18:33;10.90;;;4.80;;
58015;SDS011;43809;52.110;20.964;2022-12-29T11:20:37;7.87;;;4.17;;
58015;SDS011;43809;52.110;20.964;2022-12-29T11:22:38;7.40;;;4.20;;
58015;SDS011;43809;52.110;20.964;2022-12-29T11:24:44;9.68;;;4.70;;
58015;SDS011;43809;52.110;20.964;2022-12-29T11:26:45;8.48;;;4.50;;
58015;SDS011;43809;52.110;20.964;2022-12-29T11:29:03;8.10;;;4.25;;
58015;SDS011;43809;52.110;20.964;2022-12-29T11:31:04;7.47;;;4.45;;
58015;SDS011;43809;52.110;20.964;2022-12-29T11:33:05;7.95;;;4.88;;
58015;SDS011;43809;52.110;20.964;2022-12-29T11:35:13;7.90;;;4.43;;
58015;SDS011;43809;52.110;20.964;2022-12-29T11:37:20;8.73;;;4.90;;
58015;SDS011;43809;52.110;20.964;2022-12-29T11:41:30;9.95;;;4.90;;
58015;SDS011;43809;52.110;20.964;2022-12-29T11:43:34;7.60;;;4.63;;
58015;SDS011;43809;52.110;20.964;2022-12-29T11:45:37;6.47;;;4.20;;
58015;SDS011;43809;52.110;20.964;2022-12-29T11:47:48;7.57;;;4.28;;
58015;SDS011;43809;52.110;20.964;2022-12-29T11:49:50;11.43;;;5.07;;
58015;SDS011;43809;52.110;20.964;2022-12-29T11:51:52;8.77;;;4.80;;
58015;SDS011;43809;52.110;20.964;2022-12-29T11:53:57;7.78;;;4.68;;
58015;SDS011;43809;52.110;20.964;2022-12-29T11:56:02;8.38;;;4.38;;
58015;SDS011;43809;52.110;20.964;2022-12-29T11:58:04;6.03;;;4.22;;
58015;SDS011;43809;52.110;20.964;2022-12-29T12:00:14;8.50;;;4.90;;
58015;SDS011;43809;52.110;20.964;2022-12-29T12:04:35;7.95;;;4.40;;
58015;SDS011;43809;52.110;20.964;2022-12-29T12:06:37;9.23;;;4.60;;
58015;SDS011;43809;52.110;20.964;2022-12-29T12:08:53;8.85;;;4.22;;
58015;SDS011;43809;52.110;20.964;2022-12-29T12:10:59;9.30;;;5.03;;
58015;SDS011;43809;52.110;20.964;2022-12-29T12:13:17;8.15;;;4.63;;
58015;SDS011;43809;52.110;20.964;2022-12-29T12:15:29;8.63;;;4.63;;
58015;SDS011;43809;52.110;20.964;2022-12-29T12:17:35;7.90;;;4.13;;
58015;SDS011;43809;52.110;20.964;2022-12-29T12:19:40;9.57;;;4.72;;
58015;SDS011;43809;52.110;20.964;2022-12-29T12:21:42;8.20;;;4.43;;
58015;SDS011;43809;52.110;20.964;2022-12-29T12:26:10;9.23;;;4.80;;
58015;SDS011;43809;52.110;20.964;2022-12-29T12:28:21;7.93;;;4.90;;
58015;SDS011;43809;52.110;20.964;2022-12-29T12:30:27;6.47;;;4.32;;
58015;SDS011;43809;52.110;20.964;2022-12-29T12:34:46;7.85;;;4.35;;
58015;SDS011;43809;52.110;20.964;2022-12-29T12:36:53;8.65;;;4.70;;
58015;SDS011;43809;52.110;20.964;2022-12-29T12:39:06;9.48;;;4.32;;
58015;SDS011;43809;52.110;20.964;2022-12-29T12:41:13;7.38;;;4.20;;
58015;SDS011;43809;52.110;20.964;2022-12-29T12:45:27;6.18;;;3.83;;
58015;SDS011;43809;52.110;20.964;2022-12-29T12:51:39;7.00;;;4.17;;
58015;SDS011;43809;52.110;20.964;2022-12-29T12:53:46;7.60;;;4.28;;
58015;SDS011;43809;52.110;20.964;2022-12-29T12:56:01;7.53;;;4.20;;
58015;SDS011;43809;52.110;20.964;2022-12-29T12:58:07;9.43;;;4.57;;
58015;SDS011;43809;52.110;20.964;2022-12-29T13:00:13;7.53;;;4.60;;
58015;SDS011;43809;52.110;20.964;2022-12-29T13:02:25;6.95;;;4.38;;
58015;SDS011;43809;52.110;20.964;2022-12-29T13:04:32;6.95;;;4.40;;
58015;SDS011;43809;52.110;20.964;2022-12-29T13:11:14;7.85;;;4.65;;
58015;SDS011;43809;52.110;20.964;2022-12-29T13:15:45;8.77;;;4.38;;
58015;SDS011;43809;52.110;20.964;2022-12-29T13:17:57;8.20;;;4.55;;
58015;SDS011;43809;52.110;20.964;2022-12-29T13:20:10;7.22;;;4.15;;
58015;SDS011;43809;52.110;20.964;2022-12-29T13:26:21;8.10;;;4.60;;
58015;SDS011;43809;52.110;20.964;2022-12-29T13:28:44;9.98;;;4.53;;
58015;SDS011;43809;52.110;20.964;2022-12-29T13:33:10;8.55;;;4.57;;
58015;SDS011;43809;52.110;20.964;2022-12-29T13:37:15;9.63;;;4.53;;
58015;SDS011;43809;52.110;20.964;2022-12-29T13:39:16;7.27;;;4.67;;
58015;SDS011;43809;52.110;20.964;2022-12-29T13:41:30;8.32;;;4.35;;
58015;SDS011;43809;52.110;20.964;2022-12-29T13:43:32;8.73;;;4.55;;